PWSweather.com
Personal Weather Stations
Station Observations
WODONGA
Wodonga, WodongaAU 3690

WodongaWodongaAU 3690

Lat: -36.121, Lon: 146.87

Elevation: 541

Station Type: Weather Station

http://www.wodongaweather.net

High Low Average
Temperature 85.3°F29.6°F 47.1°F8.4°F 65.3°F18.5°F
Dew Point 54.2°F12.3°F 42.8°F6.0°F 48.2°F9.0°F
Winds 7.9 mph N12.7 mph N Calm Calm 3.2 mph 5.1 mph
Wind Gusts 13.6 mph21.9 mph 0.7 mph1.1 mph 4.9 mph7.9 mph
Humidity 86% 32% 58%
Pressure 30.17 in1021.70 in 30.02 in1016.60 in -
Precipitation 0.00 in0.00 in - -
Hour Temp Dew Point Humidity Winds Wind Gusts Pressure Precip Precip Rate Daily Precip Total
12:00 AM 53.2°F11.8°C 44.8°F7.1°C 73% 1.9 mph S3.1 kmh S 2.2 mph3.5 kmh 30.06 in1017.9 mb 0.00 in0.0 mm 0.00 in0.0 mm 0.00 in0.0 mm
12:05 AM 53.2°F11.8°C 45.2°F7.3°C 74% 2.2 mph SSE3.5 kmh SSE 3.1 mph5.0 kmh 30.07 in1018.3 mb 0.00 in0.0 mm 0.00 in0.0 mm 0.00 in0.0 mm
12:10 AM 53.2°F11.8°C 45.2°F7.3°C 74% 2.7 mph SSE4.3 kmh SSE 3.1 mph5.0 kmh 30.07 in1018.3 mb 0.00 in0.0 mm 0.00 in0.0 mm 0.00 in0.0 mm
12:15 AM 53.1°F11.7°C 45.0°F7.2°C 74% 2.4 mph SSE3.9 kmh SSE 3.1 mph5.0 kmh 30.06 in1017.9 mb 0.00 in0.0 mm 0.00 in0.0 mm 0.00 in0.0 mm
12:20 AM 53.1°F11.7°C 45.0°F7.2°C 74% 2.8 mph SSE4.5 kmh SSE 3.8 mph6.1 kmh 30.06 in1017.9 mb 0.00 in0.0 mm 0.00 in0.0 mm 0.00 in0.0 mm
12:25 AM 52.9°F11.6°C 45.2°F7.3°C 75% 3.7 mph SSE6.0 kmh SSE 4.5 mph7.2 kmh 30.06 in1017.9 mb 0.00 in0.0 mm 0.00 in0.0 mm 0.00 in0.0 mm
12:30 AM 52.7°F11.5°C 45.0°F7.2°C 75% 3.7 mph SSE6.0 kmh SSE 4.5 mph7.2 kmh 30.06 in1017.9 mb 0.00 in0.0 mm 0.00 in0.0 mm 0.00 in0.0 mm
12:35 AM 52.5°F11.4°C 44.8°F7.1°C 75% 2.8 mph SSE4.5 kmh SSE 3.8 mph6.1 kmh 30.07 in1018.3 mb 0.00 in0.0 mm 0.00 in0.0 mm 0.00 in0.0 mm
12:40 AM 52.5°F11.4°C 44.8°F7.1°C 75% 2.1 mph S3.4 kmh S 3.1 mph5.0 kmh 30.07 in1018.3 mb 0.00 in0.0 mm 0.00 in0.0 mm 0.00 in0.0 mm
12:45 AM 52.3°F11.3°C 44.7°F7.1°C 75% 1.6 mph S2.6 kmh S 3.1 mph5.0 kmh 30.07 in1018.3 mb 0.00 in0.0 mm 0.00 in0.0 mm 0.00 in0.0 mm
12:50 AM 52.3°F11.3°C 45.0°F7.2°C 76% 1.5 mph S2.4 kmh S 2.2 mph3.5 kmh 30.07 in1018.3 mb 0.00 in0.0 mm 0.00 in0.0 mm 0.00 in0.0 mm
12:55 AM 52.2°F11.2°C 44.8°F7.1°C 76% 1.8 mph S2.9 kmh S 2.2 mph3.5 kmh 30.07 in1018.3 mb 0.00 in0.0 mm 0.00 in0.0 mm 0.00 in0.0 mm
01:00 AM 52.0°F11.1°C 44.7°F7.1°C 76% 1.8 mph S2.9 kmh S 2.2 mph3.5 kmh 30.06 in1017.9 mb 0.00 in0.0 mm 0.00 in0.0 mm 0.00 in0.0 mm
01:05 AM 51.8°F11.0°C 44.5°F6.9°C 76% 2.1 mph SSW3.4 kmh SSW 3.1 mph5.0 kmh 30.06 in1017.9 mb 0.00 in0.0 mm 0.00 in0.0 mm 0.00 in0.0 mm
01:10 AM 51.6°F10.9°C 44.3°F6.8°C 76% 2.3 mph SSW3.7 kmh SSW 3.1 mph5.0 kmh 30.06 in1017.9 mb 0.00 in0.0 mm 0.00 in0.0 mm 0.00 in0.0 mm
01:15 AM 51.3°F10.7°C 44.0°F6.7°C 76% 2.2 mph S3.5 kmh S 2.2 mph3.5 kmh 30.06 in1017.9 mb 0.00 in0.0 mm 0.00 in0.0 mm 0.00 in0.0 mm
01:20 AM 51.1°F10.6°C 44.1°F6.7°C 77% 2.0 mph S3.2 kmh S 2.2 mph3.5 kmh 30.06 in1017.9 mb 0.00 in0.0 mm 0.00 in0.0 mm 0.00 in0.0 mm
01:25 AM 51.1°F10.6°C 44.1°F6.7°C 77% 2.1 mph S3.4 kmh S 3.1 mph5.0 kmh 30.06 in1017.9 mb 0.00 in0.0 mm 0.00 in0.0 mm 0.00 in0.0 mm
01:30 AM 51.1°F10.6°C 44.1°F6.7°C 77% 2.3 mph S3.7 kmh S 3.1 mph5.0 kmh 30.07 in1018.3 mb 0.00 in0.0 mm 0.00 in0.0 mm 0.00 in0.0 mm
01:35 AM 51.3°F10.7°C 44.6°F7.0°C 78% 2.5 mph S4.0 kmh S 3.1 mph5.0 kmh 30.06 in1017.9 mb 0.00 in0.0 mm 0.00 in0.0 mm 0.00 in0.0 mm
01:40 AM 51.3°F10.7°C 44.6°F7.0°C 78% 2.6 mph S4.2 kmh S 3.1 mph5.0 kmh 30.07 in1018.3 mb 0.00 in0.0 mm 0.00 in0.0 mm 0.00 in0.0 mm
01:45 AM 51.3°F10.7°C 44.6°F7.0°C 78% 2.8 mph SSE4.5 kmh SSE 3.8 mph6.1 kmh 30.07 in1018.3 mb 0.00 in0.0 mm 0.00 in0.0 mm 0.00 in0.0 mm
01:50 AM 51.1°F10.6°C 44.5°F6.9°C 78% 3.1 mph SE5.0 kmh SE 3.8 mph6.1 kmh 30.06 in1017.9 mb 0.00 in0.0 mm 0.00 in0.0 mm 0.00 in0.0 mm
01:55 AM 50.9°F10.5°C 44.6°F7.0°C 79% 2.7 mph SE4.3 kmh SE 3.8 mph6.1 kmh 30.07 in1018.3 mb 0.00 in0.0 mm 0.00 in0.0 mm 0.00 in0.0 mm
02:00 AM 51.1°F10.6°C 44.5°F6.9°C 78% 2.6 mph SE4.2 kmh SE 3.8 mph6.1 kmh 30.07 in1018.3 mb 0.00 in0.0 mm 0.00 in0.0 mm 0.00 in0.0 mm
02:05 AM 51.1°F10.6°C 44.8°F7.1°C 79% 3.2 mph SSE5.1 kmh SSE 4.5 mph7.2 kmh 30.07 in1018.3 mb 0.00 in0.0 mm 0.00 in0.0 mm 0.00 in0.0 mm
02:10 AM 51.1°F10.6°C 44.8°F7.1°C 79% 3.1 mph S5.0 kmh S 4.5 mph7.2 kmh 30.07 in1018.3 mb 0.00 in0.0 mm 0.00 in0.0 mm 0.00 in0.0 mm
02:15 AM 51.1°F10.6°C 44.8°F7.1°C 79% 2.3 mph S3.7 kmh S 3.1 mph5.0 kmh 30.07 in1018.3 mb 0.00 in0.0 mm 0.00 in0.0 mm 0.00 in0.0 mm
02:20 AM 50.9°F10.5°C 44.6°F7.0°C 79% 1.9 mph S3.1 kmh S 2.2 mph3.5 kmh 30.07 in1018.3 mb 0.00 in0.0 mm 0.00 in0.0 mm 0.00 in0.0 mm
02:25 AM 50.7°F10.4°C 44.5°F6.9°C 79% 2.2 mph S3.5 kmh S 3.8 mph6.1 kmh 30.07 in1018.3 mb 0.00 in0.0 mm 0.00 in0.0 mm 0.00 in0.0 mm
02:30 AM 50.5°F10.3°C 44.3°F6.8°C 79% 2.1 mph S3.4 kmh S 3.8 mph6.1 kmh 30.07 in1018.3 mb 0.00 in0.0 mm 0.00 in0.0 mm 0.00 in0.0 mm
02:35 AM 50.4°F10.2°C 44.4°F6.9°C 80% 1.7 mph S2.7 kmh S 2.2 mph3.5 kmh 30.07 in1018.3 mb 0.00 in0.0 mm 0.00 in0.0 mm 0.00 in0.0 mm
02:40 AM 50.2°F10.1°C 44.3°F6.8°C 80% 1.7 mph S2.7 kmh S 2.2 mph3.5 kmh 30.07 in1018.3 mb 0.00 in0.0 mm 0.00 in0.0 mm 0.00 in0.0 mm
02:45 AM 50.2°F10.1°C 44.3°F6.8°C 80% 1.9 mph S3.1 kmh S 3.1 mph5.0 kmh 30.07 in1018.3 mb 0.00 in0.0 mm 0.00 in0.0 mm 0.00 in0.0 mm
02:50 AM 50.0°F10.0°C 44.1°F6.7°C 80% 2.2 mph S3.5 kmh S 3.8 mph6.1 kmh 30.07 in1018.3 mb 0.00 in0.0 mm 0.00 in0.0 mm 0.00 in0.0 mm
02:55 AM 50.0°F10.0°C 44.1°F6.7°C 80% 2.1 mph S3.4 kmh S 3.8 mph6.1 kmh 30.07 in1018.3 mb 0.00 in0.0 mm 0.00 in0.0 mm 0.00 in0.0 mm
03:00 AM 49.8°F9.9°C 43.9°F6.6°C 80% 2.2 mph S3.5 kmh S 3.1 mph5.0 kmh 30.07 in1018.3 mb 0.00 in0.0 mm 0.00 in0.0 mm 0.00 in0.0 mm
03:05 AM 49.6°F9.8°C 44.1°F6.7°C 81% 2.2 mph S3.5 kmh S 3.1 mph5.0 kmh 30.08 in1018.6 mb 0.00 in0.0 mm 0.00 in0.0 mm 0.00 in0.0 mm
03:10 AM 49.6°F9.8°C 44.1°F6.7°C 81% 2.2 mph SE3.5 kmh SE 3.8 mph6.1 kmh 30.07 in1018.3 mb 0.00 in0.0 mm 0.00 in0.0 mm 0.00 in0.0 mm
03:15 AM 49.6°F9.8°C 44.1°F6.7°C 81% 2.6 mph SE4.2 kmh SE 3.8 mph6.1 kmh 30.07 in1018.3 mb 0.00 in0.0 mm 0.00 in0.0 mm 0.00 in0.0 mm
03:20 AM 49.6°F9.8°C 44.1°F6.7°C 81% 2.9 mph SE4.7 kmh SE 3.8 mph6.1 kmh 30.07 in1018.3 mb 0.00 in0.0 mm 0.00 in0.0 mm 0.00 in0.0 mm
03:25 AM 49.3°F9.6°C 43.7°F6.5°C 81% 2.9 mph SE4.7 kmh SE 3.1 mph5.0 kmh 30.07 in1018.3 mb 0.00 in0.0 mm 0.00 in0.0 mm 0.00 in0.0 mm
03:30 AM 49.1°F9.5°C 43.8°F6.6°C 82% 2.7 mph SE4.3 kmh SE 3.1 mph5.0 kmh 30.07 in1018.3 mb 0.00 in0.0 mm 0.00 in0.0 mm 0.00 in0.0 mm
03:35 AM 49.1°F9.5°C 43.8°F6.6°C 82% 2.8 mph ESE4.5 kmh ESE 4.5 mph7.2 kmh 30.07 in1018.3 mb 0.00 in0.0 mm 0.00 in0.0 mm 0.00 in0.0 mm
03:40 AM 49.1°F9.5°C 43.8°F6.6°C 82% 3.3 mph SE5.3 kmh SE 4.5 mph7.2 kmh 30.07 in1018.3 mb 0.00 in0.0 mm 0.00 in0.0 mm 0.00 in0.0 mm
03:45 AM 48.9°F9.4°C 43.7°F6.5°C 82% 3.6 mph SE5.8 kmh SE 4.5 mph7.2 kmh 30.07 in1018.3 mb 0.00 in0.0 mm 0.00 in0.0 mm 0.00 in0.0 mm
03:50 AM 49.1°F9.5°C 43.8°F6.6°C 82% 3.3 mph S5.3 kmh S 3.8 mph6.1 kmh 30.07 in1018.3 mb 0.00 in0.0 mm 0.00 in0.0 mm 0.00 in0.0 mm
03:55 AM 48.9°F9.4°C 43.7°F6.5°C 82% 2.5 mph S4.0 kmh S 3.8 mph6.1 kmh 30.08 in1018.6 mb 0.00 in0.0 mm 0.00 in0.0 mm 0.00 in0.0 mm
04:00 AM 48.9°F9.4°C 43.4°F6.3°C 81% 2.0 mph S3.2 kmh S 2.2 mph3.5 kmh 30.08 in1018.6 mb 0.00 in0.0 mm 0.00 in0.0 mm 0.00 in0.0 mm
04:05 AM 48.9°F9.4°C 43.4°F6.3°C 81% 2.1 mph SSE3.4 kmh SSE 2.2 mph3.5 kmh 30.09 in1019.0 mb 0.00 in0.0 mm 0.00 in0.0 mm 0.00 in0.0 mm
04:10 AM 48.9°F9.4°C 43.4°F6.3°C 81% 2.0 mph SSE3.2 kmh SSE 2.2 mph3.5 kmh 30.08 in1018.6 mb 0.00 in0.0 mm 0.00 in0.0 mm 0.00 in0.0 mm
04:15 AM 48.6°F9.2°C 43.0°F6.1°C 81% 2.1 mph S3.4 kmh S 2.2 mph3.5 kmh 30.08 in1018.6 mb 0.00 in0.0 mm 0.00 in0.0 mm 0.00 in0.0 mm
04:20 AM 48.6°F9.2°C 43.0°F6.1°C 81% 2.1 mph S3.4 kmh S 2.2 mph3.5 kmh 30.09 in1019.0 mb 0.00 in0.0 mm 0.00 in0.0 mm 0.00 in0.0 mm
04:25 AM 48.2°F9.0°C 43.0°F6.1°C 82% 1.8 mph S2.9 kmh S 2.2 mph3.5 kmh 30.09 in1019.0 mb 0.00 in0.0 mm 0.00 in0.0 mm 0.00 in0.0 mm
04:30 AM 48.2°F9.0°C 43.0°F6.1°C 82% 1.9 mph SSE3.1 kmh SSE 2.2 mph3.5 kmh 30.09 in1019.0 mb 0.00 in0.0 mm 0.00 in0.0 mm 0.00 in0.0 mm
04:35 AM 48.2°F9.0°C 43.0°F6.1°C 82% 2.2 mph SSE3.5 kmh SSE 2.2 mph3.5 kmh 30.09 in1019.0 mb 0.00 in0.0 mm 0.00 in0.0 mm 0.00 in0.0 mm
04:40 AM 48.0°F8.9°C 42.8°F6.0°C 82% 2.1 mph S3.4 kmh S 2.2 mph3.5 kmh 30.09 in1019.0 mb 0.00 in0.0 mm 0.00 in0.0 mm 0.00 in0.0 mm
04:45 AM 47.8°F8.8°C 42.9°F6.1°C 83% 2.2 mph S3.5 kmh S 3.1 mph5.0 kmh 30.09 in1019.0 mb 0.00 in0.0 mm 0.00 in0.0 mm 0.00 in0.0 mm
04:50 AM 47.7°F8.7°C 42.8°F6.0°C 83% 2.2 mph S3.5 kmh S 3.1 mph5.0 kmh 30.09 in1019.0 mb 0.00 in0.0 mm 0.00 in0.0 mm 0.00 in0.0 mm
04:55 AM 47.7°F8.7°C 43.1°F6.2°C 84% 2.1 mph S3.4 kmh S 3.1 mph5.0 kmh 30.10 in1019.3 mb 0.00 in0.0 mm 0.00 in0.0 mm 0.00 in0.0 mm
05:00 AM 47.7°F8.7°C 43.1°F6.2°C 84% 2.2 mph S3.5 kmh S 3.1 mph5.0 kmh 30.10 in1019.3 mb 0.00 in0.0 mm 0.00 in0.0 mm 0.00 in0.0 mm
05:05 AM 47.5°F8.6°C 42.9°F6.1°C 84% 2.1 mph S3.4 kmh S 2.2 mph3.5 kmh 30.10 in1019.3 mb 0.00 in0.0 mm 0.00 in0.0 mm 0.00 in0.0 mm
05:10 AM 47.5°F8.6°C 42.9°F6.1°C 84% 2.3 mph S3.7 kmh S 3.1 mph5.0 kmh 30.10 in1019.3 mb 0.00 in0.0 mm 0.00 in0.0 mm 0.00 in0.0 mm
05:15 AM 47.5°F8.6°C 43.2°F6.2°C 85% 2.1 mph S3.4 kmh S 3.1 mph5.0 kmh 30.10 in1019.3 mb 0.00 in0.0 mm 0.00 in0.0 mm 0.00 in0.0 mm
05:20 AM 47.7°F8.7°C 43.4°F6.3°C 85% 2.1 mph S3.4 kmh S 2.2 mph3.5 kmh 30.10 in1019.3 mb 0.00 in0.0 mm 0.00 in0.0 mm 0.00 in0.0 mm
05:25 AM 47.5°F8.6°C 43.2°F6.2°C 85% 2.2 mph S3.5 kmh S 2.2 mph3.5 kmh 30.10 in1019.3 mb 0.00 in0.0 mm 0.00 in0.0 mm 0.00 in0.0 mm
05:30 AM 47.3°F8.5°C 43.0°F6.1°C 85% 2.2 mph S3.5 kmh S 2.2 mph3.5 kmh 30.10 in1019.3 mb 0.00 in0.0 mm 0.00 in0.0 mm 0.00 in0.0 mm
05:35 AM 47.1°F8.4°C 42.8°F6.0°C 85% 1.9 mph S3.1 kmh S 2.2 mph3.5 kmh 30.10 in1019.3 mb 0.00 in0.0 mm 0.00 in0.0 mm 0.00 in0.0 mm
05:40 AM 47.1°F8.4°C 42.8°F6.0°C 85% 1.7 mph S2.7 kmh S 2.2 mph3.5 kmh 30.10 in1019.3 mb 0.00 in0.0 mm 0.00 in0.0 mm 0.00 in0.0 mm
05:45 AM 47.3°F8.5°C 43.0°F6.1°C 85% 1.7 mph S2.7 kmh S 2.2 mph3.5 kmh 30.10 in1019.3 mb 0.00 in0.0 mm 0.00 in0.0 mm 0.00 in0.0 mm
05:50 AM 47.1°F8.4°C 42.8°F6.0°C 85% 1.7 mph S2.7 kmh S 2.2 mph3.5 kmh 30.11 in1019.6 mb 0.00 in0.0 mm 0.00 in0.0 mm 0.00 in0.0 mm
05:55 AM 47.1°F8.4°C 42.8°F6.0°C 85% 2.4 mph S3.9 kmh S 3.1 mph5.0 kmh 30.11 in1019.6 mb 0.00 in0.0 mm 0.00 in0.0 mm 0.00 in0.0 mm
06:00 AM 47.1°F8.4°C 42.8°F6.0°C 85% 3.0 mph S4.8 kmh S 3.1 mph5.0 kmh 30.11 in1019.6 mb 0.00 in0.0 mm 0.00 in0.0 mm 0.00 in0.0 mm
06:05 AM 47.1°F8.4°C 43.2°F6.2°C 86% 2.7 mph S4.3 kmh S 3.1 mph5.0 kmh 30.11 in1019.6 mb 0.00 in0.0 mm 0.00 in0.0 mm 0.00 in0.0 mm
06:10 AM 47.1°F8.4°C 43.2°F6.2°C 86% 2.3 mph S3.7 kmh S 3.1 mph5.0 kmh 30.12 in1020.0 mb 0.00 in0.0 mm 0.00 in0.0 mm 0.00 in0.0 mm
06:15 AM 47.3°F8.5°C 43.3°F6.3°C 86% 2.0 mph S3.2 kmh S 2.2 mph3.5 kmh 30.12 in1020.0 mb 0.00 in0.0 mm 0.00 in0.0 mm 0.00 in0.0 mm
06:20 AM 47.5°F8.6°C 43.2°F6.2°C 85% 1.7 mph S2.7 kmh S 2.2 mph3.5 kmh 30.12 in1020.0 mb 0.00 in0.0 mm 0.00 in0.0 mm 0.00 in0.0 mm
06:25 AM 47.7°F8.7°C 43.4°F6.3°C 85% 1.8 mph S2.9 kmh S 2.2 mph3.5 kmh 30.12 in1020.0 mb 0.00 in0.0 mm 0.00 in0.0 mm 0.00 in0.0 mm
06:30 AM 47.8°F8.8°C 43.6°F6.4°C 85% 1.8 mph S2.9 kmh S 2.2 mph3.5 kmh 30.12 in1020.0 mb 0.00 in0.0 mm 0.00 in0.0 mm 0.00 in0.0 mm
06:35 AM 48.0°F8.9°C 43.7°F6.5°C 85% 1.6 mph S2.6 kmh S 2.2 mph3.5 kmh 30.13 in1020.3 mb 0.00 in0.0 mm 0.00 in0.0 mm 0.00 in0.0 mm
06:40 AM 48.2°F9.0°C 43.9°F6.6°C 85% 1.6 mph S2.6 kmh S 2.2 mph3.5 kmh 30.13 in1020.3 mb 0.00 in0.0 mm 0.00 in0.0 mm 0.00 in0.0 mm
06:45 AM 48.6°F9.2°C 44.0°F6.7°C 84% 1.7 mph S2.7 kmh S 2.2 mph3.5 kmh 30.13 in1020.3 mb 0.00 in0.0 mm 0.00 in0.0 mm 0.00 in0.0 mm
06:50 AM 48.9°F9.4°C 44.3°F6.8°C 84% 1.9 mph S3.1 kmh S 2.2 mph3.5 kmh 30.14 in1020.7 mb 0.00 in0.0 mm 0.00 in0.0 mm 0.00 in0.0 mm
06:55 AM 49.1°F9.5°C 44.5°F6.9°C 84% 2.1 mph S3.4 kmh S 3.1 mph5.0 kmh 30.14 in1020.7 mb 0.00 in0.0 mm 0.00 in0.0 mm 0.00 in0.0 mm
07:00 AM 49.5°F9.7°C 44.8°F7.1°C 84% 2.4 mph SSE3.9 kmh SSE 4.5 mph7.2 kmh 30.13 in1020.3 mb 0.00 in0.0 mm 0.00 in0.0 mm 0.00 in0.0 mm
07:05 AM 49.8°F9.9°C 45.2°F7.3°C 84% 2.8 mph SE4.5 kmh SE 4.5 mph7.2 kmh 30.14 in1020.7 mb 0.00 in0.0 mm 0.00 in0.0 mm 0.00 in0.0 mm
07:10 AM 50.4°F10.2°C 45.4°F7.4°C 83% 2.7 mph SE4.3 kmh SE 3.8 mph6.1 kmh 30.14 in1020.7 mb 0.00 in0.0 mm 0.00 in0.0 mm 0.00 in0.0 mm
07:15 AM 50.9°F10.5°C 45.9°F7.7°C 83% 3.0 mph SE4.8 kmh SE 4.5 mph7.2 kmh 30.14 in1020.7 mb 0.00 in0.0 mm 0.00 in0.0 mm 0.00 in0.0 mm
07:20 AM 51.4°F10.8°C 46.1°F7.8°C 82% 3.2 mph ESE5.1 kmh ESE 4.5 mph7.2 kmh 30.14 in1020.7 mb 0.00 in0.0 mm 0.00 in0.0 mm 0.00 in0.0 mm
07:25 AM 52.0°F11.1°C 46.7°F8.2°C 82% 2.9 mph SE4.7 kmh SE 4.5 mph7.2 kmh 30.14 in1020.7 mb 0.00 in0.0 mm 0.00 in0.0 mm 0.00 in0.0 mm
07:30 AM 52.7°F11.5°C 47.0°F8.3°C 81% 3.2 mph SE5.1 kmh SE 4.5 mph7.2 kmh 30.14 in1020.7 mb 0.00 in0.0 mm 0.00 in0.0 mm 0.00 in0.0 mm
07:35 AM 53.2°F11.8°C 47.2°F8.4°C 80% 3.3 mph SE5.3 kmh SE 4.5 mph7.2 kmh 30.15 in1021.0 mb 0.00 in0.0 mm 0.00 in0.0 mm 0.00 in0.0 mm
07:40 AM 53.8°F12.1°C 47.8°F8.8°C 80% 4.4 mph SE7.1 kmh SE 9.2 mph14.8 kmh 30.15 in1021.0 mb 0.00 in0.0 mm 0.00 in0.0 mm 0.00 in0.0 mm
07:45 AM 54.9°F12.7°C 48.5°F9.2°C 79% 5.6 mph ESE9.0 kmh ESE 9.2 mph14.8 kmh 30.16 in1021.3 mb 0.00 in0.0 mm 0.00 in0.0 mm 0.00 in0.0 mm
07:50 AM 55.4°F13.0°C 48.3°F9.1°C 77% 4.9 mph SE7.9 kmh SE 7.6 mph12.2 kmh 30.16 in1021.3 mb 0.00 in0.0 mm 0.00 in0.0 mm 0.00 in0.0 mm
07:55 AM 56.1°F13.4°C 48.7°F9.3°C 76% 4.5 mph ESE7.2 kmh ESE 6.0 mph9.7 kmh 30.15 in1021.0 mb 0.00 in0.0 mm 0.00 in0.0 mm 0.00 in0.0 mm
08:00 AM 56.7°F13.7°C 49.2°F9.6°C 76% 5.0 mph ESE8.0 kmh ESE 6.9 mph11.1 kmh 30.16 in1021.3 mb 0.00 in0.0 mm 0.00 in0.0 mm 0.00 in0.0 mm
08:05 AM 57.2°F14.0°C 49.4°F9.7°C 75% 4.5 mph ESE7.2 kmh ESE 6.9 mph11.1 kmh 30.16 in1021.3 mb 0.00 in0.0 mm 0.00 in0.0 mm 0.00 in0.0 mm
08:10 AM 57.7°F14.3°C 49.5°F9.7°C 74% 3.7 mph ESE6.0 kmh ESE 4.5 mph7.2 kmh 30.15 in1021.0 mb 0.00 in0.0 mm 0.00 in0.0 mm 0.00 in0.0 mm
08:15 AM 58.6°F14.8°C 50.0°F10.0°C 73% 3.8 mph SE6.1 kmh SE 4.5 mph7.2 kmh 30.15 in1021.0 mb 0.00 in0.0 mm 0.00 in0.0 mm 0.00 in0.0 mm
08:20 AM 59.5°F15.3°C 50.5°F10.3°C 72% 3.8 mph SE6.1 kmh SE 5.4 mph8.7 kmh 30.16 in1021.3 mb 0.00 in0.0 mm 0.00 in0.0 mm 0.00 in0.0 mm
08:25 AM 60.4°F15.8°C 50.6°F10.3°C 70% 4.5 mph SSE7.2 kmh SSE 6.0 mph9.7 kmh 30.16 in1021.3 mb 0.00 in0.0 mm 0.00 in0.0 mm 0.00 in0.0 mm
08:30 AM 61.0°F16.1°C 51.1°F10.6°C 70% 4.4 mph SE7.1 kmh SE 6.0 mph9.7 kmh 30.16 in1021.3 mb 0.00 in0.0 mm 0.00 in0.0 mm 0.00 in0.0 mm
08:35 AM 61.5°F16.4°C 51.3°F10.7°C 69% 4.2 mph SE6.8 kmh SE 6.0 mph9.7 kmh 30.16 in1021.3 mb 0.00 in0.0 mm 0.00 in0.0 mm 0.00 in0.0 mm
08:40 AM 62.1°F16.7°C 51.4°F10.8°C 68% 4.4 mph SE7.1 kmh SE 6.0 mph9.7 kmh 30.16 in1021.3 mb 0.00 in0.0 mm 0.00 in0.0 mm 0.00 in0.0 mm
08:45 AM 62.6°F17.0°C 51.5°F10.8°C 67% 3.8 mph SE6.1 kmh SE 5.4 mph8.7 kmh 30.16 in1021.3 mb 0.00 in0.0 mm 0.00 in0.0 mm 0.00 in0.0 mm
08:50 AM 63.0°F17.2°C 51.4°F10.8°C 66% 3.5 mph SE5.6 kmh SE 5.4 mph8.7 kmh 30.16 in1021.3 mb 0.00 in0.0 mm 0.00 in0.0 mm 0.00 in0.0 mm
08:55 AM 63.5°F17.5°C 51.5°F10.8°C 65% 4.1 mph ENE6.6 kmh ENE 6.0 mph9.7 kmh 30.16 in1021.3 mb 0.00 in0.0 mm 0.00 in0.0 mm 0.00 in0.0 mm
09:00 AM 64.8°F18.2°C 52.3°F11.3°C 64% 4.7 mph E7.6 kmh E 6.0 mph9.7 kmh 30.16 in1021.3 mb 0.00 in0.0 mm 0.00 in0.0 mm 0.00 in0.0 mm
09:05 AM 65.3°F18.5°C 52.0°F11.1°C 62% 4.5 mph E7.2 kmh E 6.0 mph9.7 kmh 30.16 in1021.3 mb 0.00 in0.0 mm 0.00 in0.0 mm 0.00 in0.0 mm
09:10 AM 65.3°F18.5°C 52.0°F11.1°C 62% 4.4 mph E7.1 kmh E 6.0 mph9.7 kmh 30.16 in1021.3 mb 0.00 in0.0 mm 0.00 in0.0 mm 0.00 in0.0 mm
09:15 AM 65.7°F18.7°C 52.3°F11.3°C 62% 4.7 mph E7.6 kmh E 9.2 mph14.8 kmh 30.16 in1021.3 mb 0.00 in0.0 mm 0.00 in0.0 mm 0.00 in0.0 mm
09:20 AM 66.4°F19.1°C 53.0°F11.7°C 62% 4.4 mph E7.1 kmh E 9.2 mph14.8 kmh 30.17 in1021.7 mb 0.00 in0.0 mm 0.00 in0.0 mm 0.00 in0.0 mm
09:25 AM 67.5°F19.7°C 52.7°F11.5°C 59% 4.4 mph ESE7.1 kmh ESE 6.9 mph11.1 kmh 30.16 in1021.3 mb 0.00 in0.0 mm 0.00 in0.0 mm 0.00 in0.0 mm
09:30 AM 67.6°F19.8°C 52.4°F11.3°C 58% 5.7 mph E9.2 kmh E 8.3 mph13.4 kmh 30.16 in1021.3 mb 0.00 in0.0 mm 0.00 in0.0 mm 0.00 in0.0 mm
09:35 AM 68.2°F20.1°C 52.4°F11.3°C 57% 5.0 mph E8.0 kmh E 8.3 mph13.4 kmh 30.16 in1021.3 mb 0.00 in0.0 mm 0.00 in0.0 mm 0.00 in0.0 mm
09:40 AM 68.5°F20.3°C 52.7°F11.5°C 57% 3.3 mph SE5.3 kmh SE 6.9 mph11.1 kmh 30.16 in1021.3 mb 0.00 in0.0 mm 0.00 in0.0 mm 0.00 in0.0 mm
09:45 AM 69.6°F20.9°C 53.7°F12.1°C 57% 3.7 mph SE6.0 kmh SE 6.0 mph9.7 kmh 30.16 in1021.3 mb 0.00 in0.0 mm 0.00 in0.0 mm 0.00 in0.0 mm
09:50 AM 69.8°F21.0°C 53.4°F11.9°C 56% 3.9 mph E6.3 kmh E 6.0 mph9.7 kmh 30.16 in1021.3 mb 0.00 in0.0 mm 0.00 in0.0 mm 0.00 in0.0 mm
09:55 AM 69.6°F20.9°C 52.8°F11.6°C 55% 4.2 mph NNE6.8 kmh NNE 6.9 mph11.1 kmh 30.16 in1021.3 mb 0.00 in0.0 mm 0.00 in0.0 mm 0.00 in0.0 mm
10:00 AM 69.8°F21.0°C 53.4°F11.9°C 56% 4.7 mph N7.6 kmh N 6.9 mph11.1 kmh 30.16 in1021.3 mb 0.00 in0.0 mm 0.00 in0.0 mm 0.00 in0.0 mm
10:05 AM 70.5°F21.4°C 53.1°F11.7°C 54% 3.6 mph NNW5.8 kmh NNW 5.4 mph8.7 kmh 30.16 in1021.3 mb 0.00 in0.0 mm 0.00 in0.0 mm 0.00 in0.0 mm
10:10 AM 70.9°F21.6°C 53.4°F11.9°C 54% 3.6 mph NW5.8 kmh NW 6.0 mph9.7 kmh 30.16 in1021.3 mb 0.00 in0.0 mm 0.00 in0.0 mm 0.00 in0.0 mm
10:15 AM 71.4°F21.9°C 51.8°F11.0°C 50% 4.0 mph NW6.4 kmh NW 6.0 mph9.7 kmh 30.16 in1021.3 mb 0.00 in0.0 mm 0.00 in0.0 mm 0.00 in0.0 mm
10:20 AM 71.8°F22.1°C 52.7°F11.5°C 51% 4.5 mph NNW7.2 kmh NNW 6.0 mph9.7 kmh 30.16 in1021.3 mb 0.00 in0.0 mm 0.00 in0.0 mm 0.00 in0.0 mm
10:25 AM 72.0°F22.2°C 52.3°F11.3°C 50% 5.1 mph NNW8.2 kmh NNW 6.9 mph11.1 kmh 30.15 in1021.0 mb 0.00 in0.0 mm 0.00 in0.0 mm 0.00 in0.0 mm
10:30 AM 72.5°F22.5°C 52.3°F11.3°C 49% 4.1 mph N6.6 kmh N 6.9 mph11.1 kmh 30.15 in1021.0 mb 0.00 in0.0 mm 0.00 in0.0 mm 0.00 in0.0 mm
10:35 AM 72.9°F22.7°C 51.5°F10.8°C 47% 5.2 mph N8.4 kmh N 9.2 mph14.8 kmh 30.16 in1021.3 mb 0.00 in0.0 mm 0.00 in0.0 mm 0.00 in0.0 mm
10:40 AM 72.7°F22.6°C 51.3°F10.7°C 47% 6.1 mph NNW9.8 kmh NNW 9.2 mph14.8 kmh 30.15 in1021.0 mb 0.00 in0.0 mm 0.00 in0.0 mm 0.00 in0.0 mm
10:45 AM 73.4°F23.0°C 52.0°F11.1°C 47% 4.3 mph WNW6.9 kmh WNW 6.9 mph11.1 kmh 30.15 in1021.0 mb 0.00 in0.0 mm 0.00 in0.0 mm 0.00 in0.0 mm
10:50 AM 73.6°F23.1°C 52.1°F11.2°C 47% 3.9 mph W6.3 kmh W 6.0 mph9.7 kmh 30.15 in1021.0 mb 0.00 in0.0 mm 0.00 in0.0 mm 0.00 in0.0 mm
10:55 AM 73.9°F23.3°C 52.5°F11.4°C 47% 3.8 mph NW6.1 kmh NW 6.0 mph9.7 kmh 30.14 in1020.7 mb 0.00 in0.0 mm 0.00 in0.0 mm 0.00 in0.0 mm
11:00 AM 74.8°F23.8°C 53.3°F11.8°C 47% 3.8 mph ENE6.1 kmh ENE 6.9 mph11.1 kmh 30.14 in1020.7 mb 0.00 in0.0 mm 0.00 in0.0 mm 0.00 in0.0 mm
11:05 AM 76.5°F24.7°C 54.2°F12.3°C 46% 4.7 mph ESE7.6 kmh ESE 6.9 mph11.1 kmh 30.14 in1020.7 mb 0.00 in0.0 mm 0.00 in0.0 mm 0.00 in0.0 mm
11:10 AM 76.6°F24.8°C 53.7°F12.1°C 45% 4.4 mph SE7.1 kmh SE 6.0 mph9.7 kmh 30.14 in1020.7 mb 0.00 in0.0 mm 0.00 in0.0 mm 0.00 in0.0 mm
11:15 AM 77.4°F25.2°C 53.8°F12.1°C 44% 3.2 mph SSE5.1 kmh SSE 5.4 mph8.7 kmh 30.14 in1020.7 mb 0.00 in0.0 mm 0.00 in0.0 mm 0.00 in0.0 mm
11:20 AM 77.7°F25.4°C 54.1°F12.3°C 44% 2.7 mph SE4.3 kmh SE 4.5 mph7.2 kmh 30.14 in1020.7 mb 0.00 in0.0 mm 0.00 in0.0 mm 0.00 in0.0 mm
11:25 AM 77.7°F25.4°C 52.2°F11.2°C 41% 3.7 mph NW6.0 kmh NW 10.7 mph17.2 kmh 30.13 in1020.3 mb 0.00 in0.0 mm 0.00 in0.0 mm 0.00 in0.0 mm
11:30 AM 77.2°F25.1°C 53.0°F11.7°C 43% 6.7 mph NNE10.8 kmh NNE 10.7 mph17.2 kmh 30.13 in1020.3 mb 0.00 in0.0 mm 0.00 in0.0 mm 0.00 in0.0 mm
11:35 AM 76.6°F24.8°C 51.9°F11.1°C 42% 7.9 mph N12.7 kmh N 10.7 mph17.2 kmh 30.13 in1020.3 mb 0.00 in0.0 mm 0.00 in0.0 mm 0.00 in0.0 mm
11:40 AM 77.0°F25.0°C 52.8°F11.6°C 43% 6.3 mph NW10.1 kmh NW 9.2 mph14.8 kmh 30.13 in1020.3 mb 0.00 in0.0 mm 0.00 in0.0 mm 0.00 in0.0 mm
11:45 AM 77.4°F25.2°C 53.2°F11.8°C 43% 4.5 mph NNW7.2 kmh NNW 7.6 mph12.2 kmh 30.12 in1020.0 mb 0.00 in0.0 mm 0.00 in0.0 mm 0.00 in0.0 mm
11:50 AM 77.7°F25.4°C 52.2°F11.2°C 41% 5.4 mph N8.7 kmh N 9.8 mph15.8 kmh 30.12 in1020.0 mb 0.00 in0.0 mm 0.00 in0.0 mm 0.00 in0.0 mm
11:55 AM 76.8°F24.9°C 52.0°F11.1°C 42% 7.1 mph N11.4 kmh N 9.8 mph15.8 kmh 30.12 in1020.0 mb 0.00 in0.0 mm 0.00 in0.0 mm 0.00 in0.0 mm
12:00 PM 77.2°F25.1°C 52.3°F11.3°C 42% 5.8 mph NNW9.3 kmh NNW 9.2 mph14.8 kmh 30.12 in1020.0 mb 0.00 in0.0 mm 0.00 in0.0 mm 0.00 in0.0 mm
12:05 PM 77.9°F25.5°C 52.3°F11.3°C 41% 4.8 mph NW7.7 kmh NW 9.2 mph14.8 kmh 30.12 in1020.0 mb 0.00 in0.0 mm 0.00 in0.0 mm 0.00 in0.0 mm
12:10 PM 78.6°F25.9°C 51.6°F10.9°C 39% 5.5 mph N8.9 kmh N 9.2 mph14.8 kmh 30.12 in1020.0 mb 0.00 in0.0 mm 0.00 in0.0 mm 0.00 in0.0 mm
12:15 PM 78.8°F26.0°C 52.5°F11.4°C 40% 4.9 mph N7.9 kmh N 8.3 mph13.4 kmh 30.12 in1020.0 mb 0.00 in0.0 mm 0.00 in0.0 mm 0.00 in0.0 mm
12:20 PM 79.5°F26.4°C 53.1°F11.7°C 40% 3.8 mph N6.1 kmh N 8.3 mph13.4 kmh 30.12 in1020.0 mb 0.00 in0.0 mm 0.00 in0.0 mm 0.00 in0.0 mm
12:25 PM 79.3°F26.3°C 52.3°F11.3°C 39% 4.5 mph ENE7.2 kmh ENE 9.8 mph15.8 kmh 30.11 in1019.6 mb 0.00 in0.0 mm 0.00 in0.0 mm 0.00 in0.0 mm
12:30 PM 79.9°F26.6°C 52.8°F11.6°C 39% 5.1 mph E8.2 kmh E 9.8 mph15.8 kmh 30.11 in1019.6 mb 0.00 in0.0 mm 0.00 in0.0 mm 0.00 in0.0 mm
12:35 PM 79.5°F26.4°C 51.7°F10.9°C 38% 5.8 mph NW9.3 kmh NW 8.3 mph13.4 kmh 30.11 in1019.6 mb 0.00 in0.0 mm 0.00 in0.0 mm 0.00 in0.0 mm
12:40 PM 80.1°F26.7°C 52.2°F11.2°C 38% 6.1 mph NW9.8 kmh NW 8.3 mph13.4 kmh 30.11 in1019.6 mb 0.00 in0.0 mm 0.00 in0.0 mm 0.00 in0.0 mm
12:45 PM 80.2°F26.8°C 52.4°F11.3°C 38% 5.4 mph N8.7 kmh N 8.3 mph13.4 kmh 30.11 in1019.6 mb 0.00 in0.0 mm 0.00 in0.0 mm 0.00 in0.0 mm
12:50 PM 80.6°F27.0°C 52.7°F11.5°C 38% 5.2 mph ENE8.4 kmh ENE 7.6 mph12.2 kmh 30.10 in1019.3 mb 0.00 in0.0 mm 0.00 in0.0 mm 0.00 in0.0 mm
12:55 PM 80.1°F26.7°C 52.2°F11.2°C 38% 4.6 mph NE7.4 kmh NE 7.6 mph12.2 kmh 30.10 in1019.3 mb 0.00 in0.0 mm 0.00 in0.0 mm 0.00 in0.0 mm
01:00 PM 80.1°F26.7°C 52.2°F11.2°C 38% 4.3 mph NNE6.9 kmh NNE 6.9 mph11.1 kmh 30.10 in1019.3 mb 0.00 in0.0 mm 0.00 in0.0 mm 0.00 in0.0 mm
01:05 PM 80.2°F26.8°C 52.4°F11.3°C 38% 4.2 mph NE6.8 kmh NE 6.0 mph9.7 kmh 30.10 in1019.3 mb 0.00 in0.0 mm 0.00 in0.0 mm 0.00 in0.0 mm
01:10 PM 80.6°F27.0°C 52.7°F11.5°C 38% 4.4 mph NE7.1 kmh NE 11.4 mph18.3 kmh 30.10 in1019.3 mb 0.00 in0.0 mm 0.00 in0.0 mm 0.00 in0.0 mm
01:15 PM 80.4°F26.9°C 51.8°F11.0°C 37% 5.9 mph NE9.5 kmh NE 11.4 mph18.3 kmh 30.10 in1019.3 mb 0.00 in0.0 mm 0.00 in0.0 mm 0.00 in0.0 mm
01:20 PM 80.6°F27.0°C 52.7°F11.5°C 38% 6.3 mph NNE10.1 kmh NNE 11.4 mph18.3 kmh 30.09 in1019.0 mb 0.00 in0.0 mm 0.00 in0.0 mm 0.00 in0.0 mm
01:25 PM 80.8°F27.1°C 52.8°F11.6°C 38% 5.5 mph NE8.9 kmh NE 12.1 mph19.5 kmh 30.09 in1019.0 mb 0.00 in0.0 mm 0.00 in0.0 mm 0.00 in0.0 mm
01:30 PM 81.5°F27.5°C 52.8°F11.6°C 37% 6.5 mph ENE10.5 kmh ENE 13.6 mph21.9 kmh 30.09 in1019.0 mb 0.00 in0.0 mm 0.00 in0.0 mm 0.00 in0.0 mm
01:35 PM 82.0°F27.8°C 51.7°F10.9°C 35% 6.5 mph E10.5 kmh E 13.6 mph21.9 kmh 30.09 in1019.0 mb 0.00 in0.0 mm 0.00 in0.0 mm 0.00 in0.0 mm
01:40 PM 80.8°F27.1°C 52.1°F11.2°C 37% 4.6 mph NE7.4 kmh NE 7.6 mph12.2 kmh 30.08 in1018.6 mb 0.00 in0.0 mm 0.00 in0.0 mm 0.00 in0.0 mm
01:45 PM 81.7°F27.6°C 52.9°F11.6°C 37% 4.4 mph E7.1 kmh E 7.6 mph12.2 kmh 30.09 in1019.0 mb 0.00 in0.0 mm 0.00 in0.0 mm 0.00 in0.0 mm
01:50 PM 81.3°F27.4°C 51.9°F11.1°C 36% 4.8 mph E7.7 kmh E 7.6 mph12.2 kmh 30.09 in1019.0 mb 0.00 in0.0 mm 0.00 in0.0 mm 0.00 in0.0 mm
01:55 PM 80.6°F27.0°C 51.2°F10.7°C 36% 5.0 mph NE8.0 kmh NE 6.9 mph11.1 kmh 30.09 in1019.0 mb 0.00 in0.0 mm 0.00 in0.0 mm 0.00 in0.0 mm
02:00 PM 80.6°F27.0°C 52.0°F11.1°C 37% 4.7 mph NNE7.6 kmh NNE 6.9 mph11.1 kmh 30.08 in1018.6 mb 0.00 in0.0 mm 0.00 in0.0 mm 0.00 in0.0 mm
02:05 PM 81.9°F27.7°C 52.3°F11.3°C 36% 4.5 mph NE7.2 kmh NE 6.9 mph11.1 kmh 30.07 in1018.3 mb 0.00 in0.0 mm 0.00 in0.0 mm 0.00 in0.0 mm
02:10 PM 81.9°F27.7°C 51.6°F10.9°C 35% 4.7 mph NNE7.6 kmh NNE 6.9 mph11.1 kmh 30.07 in1018.3 mb 0.00 in0.0 mm 0.00 in0.0 mm 0.00 in0.0 mm
02:15 PM 81.5°F27.5°C 51.3°F10.7°C 35% 5.4 mph N8.7 kmh N 8.3 mph13.4 kmh 30.06 in1017.9 mb 0.00 in0.0 mm 0.00 in0.0 mm 0.00 in0.0 mm
02:20 PM 81.7°F27.6°C 51.4°F10.8°C 35% 5.3 mph N8.5 kmh N 8.3 mph13.4 kmh 30.07 in1018.3 mb 0.00 in0.0 mm 0.00 in0.0 mm 0.00 in0.0 mm
02:25 PM 81.9°F27.7°C 50.8°F10.4°C 34% 5.3 mph NNW8.5 kmh NNW 8.3 mph13.4 kmh 30.05 in1017.6 mb 0.00 in0.0 mm 0.00 in0.0 mm 0.00 in0.0 mm
02:30 PM 81.9°F27.7°C 51.6°F10.9°C 35% 5.8 mph NNW9.3 kmh NNW 8.3 mph13.4 kmh 30.06 in1017.9 mb 0.00 in0.0 mm 0.00 in0.0 mm 0.00 in0.0 mm
02:35 PM 82.0°F27.8°C 51.7°F10.9°C 35% 5.2 mph N8.4 kmh N 7.6 mph12.2 kmh 30.05 in1017.6 mb 0.00 in0.0 mm 0.00 in0.0 mm 0.00 in0.0 mm
02:40 PM 82.0°F27.8°C 50.9°F10.5°C 34% 5.6 mph NNE9.0 kmh NNE 9.2 mph14.8 kmh 30.06 in1017.9 mb 0.00 in0.0 mm 0.00 in0.0 mm 0.00 in0.0 mm
02:45 PM 82.8°F28.2°C 52.4°F11.3°C 35% 4.8 mph ENE7.7 kmh ENE 9.2 mph14.8 kmh 30.05 in1017.6 mb 0.00 in0.0 mm 0.00 in0.0 mm 0.00 in0.0 mm
02:50 PM 83.8°F28.8°C 52.5°F11.4°C 34% 3.9 mph ESE6.3 kmh ESE 6.9 mph11.1 kmh 30.05 in1017.6 mb 0.00 in0.0 mm 0.00 in0.0 mm 0.00 in0.0 mm
02:55 PM 83.7°F28.7°C 51.6°F10.9°C 33% 4.9 mph NE7.9 kmh NE 7.6 mph12.2 kmh 30.04 in1017.3 mb 0.00 in0.0 mm 0.00 in0.0 mm 0.00 in0.0 mm
03:00 PM 83.5°F28.6°C 51.4°F10.8°C 33% 5.3 mph NNE8.5 kmh NNE 8.3 mph13.4 kmh 30.04 in1017.3 mb 0.00 in0.0 mm 0.00 in0.0 mm 0.00 in0.0 mm
03:05 PM 83.1°F28.4°C 51.1°F10.6°C 33% 5.6 mph NNE9.0 kmh NNE 9.2 mph14.8 kmh 30.05 in1017.6 mb 0.00 in0.0 mm 0.00 in0.0 mm 0.00 in0.0 mm
03:10 PM 82.4°F28.0°C 51.3°F10.7°C 34% 7.1 mph NE11.4 kmh NE 10.7 mph17.2 kmh 30.05 in1017.6 mb 0.00 in0.0 mm 0.00 in0.0 mm 0.00 in0.0 mm
03:15 PM 82.9°F28.3°C 51.7°F10.9°C 34% 6.2 mph E10.0 kmh E 10.7 mph17.2 kmh 30.05 in1017.6 mb 0.00 in0.0 mm 0.00 in0.0 mm 0.00 in0.0 mm
03:20 PM 82.8°F28.2°C 51.6°F10.9°C 34% 4.6 mph ENE7.4 kmh ENE 8.3 mph13.4 kmh 30.04 in1017.3 mb 0.00 in0.0 mm 0.00 in0.0 mm 0.00 in0.0 mm
03:25 PM 83.1°F28.4°C 51.9°F11.1°C 34% 4.6 mph NE7.4 kmh NE 8.3 mph13.4 kmh 30.04 in1017.3 mb 0.00 in0.0 mm 0.00 in0.0 mm 0.00 in0.0 mm
03:30 PM 83.3°F28.5°C 51.2°F10.7°C 33% 5.3 mph E8.5 kmh E 9.2 mph14.8 kmh 30.04 in1017.3 mb 0.00 in0.0 mm 0.00 in0.0 mm 0.00 in0.0 mm
03:35 PM 82.9°F28.3°C 50.9°F10.5°C 33% 6.5 mph NE10.5 kmh NE 9.2 mph14.8 kmh 30.04 in1017.3 mb 0.00 in0.0 mm 0.00 in0.0 mm 0.00 in0.0 mm
03:40 PM 83.3°F28.5°C 51.2°F10.7°C 33% 5.3 mph NE8.5 kmh NE 8.3 mph13.4 kmh 30.04 in1017.3 mb 0.00 in0.0 mm 0.00 in0.0 mm 0.00 in0.0 mm
03:45 PM 84.0°F28.9°C 51.0°F10.6°C 32% 5.6 mph E9.0 kmh E 9.2 mph14.8 kmh 30.04 in1017.3 mb 0.00 in0.0 mm 0.00 in0.0 mm 0.00 in0.0 mm
03:50 PM 84.4°F29.1°C 52.2°F11.2°C 33% 5.2 mph E8.4 kmh E 9.2 mph14.8 kmh 30.04 in1017.3 mb 0.00 in0.0 mm 0.00 in0.0 mm 0.00 in0.0 mm
03:55 PM 85.1°F29.5°C 52.8°F11.6°C 33% 3.3 mph S5.3 kmh S 3.8 mph6.1 kmh 30.04 in1017.3 mb 0.00 in0.0 mm 0.00 in0.0 mm 0.00 in0.0 mm
04:00 PM 85.3°F29.6°C 52.1°F11.2°C 32% 3.0 mph S4.8 kmh S 4.5 mph7.2 kmh 30.03 in1016.9 mb 0.00 in0.0 mm 0.00 in0.0 mm 0.00 in0.0 mm
04:05 PM 84.6°F29.2°C 51.5°F10.8°C 32% 2.7 mph S4.3 kmh S 4.5 mph7.2 kmh 30.03 in1016.9 mb 0.00 in0.0 mm 0.00 in0.0 mm 0.00 in0.0 mm
04:10 PM 83.8°F28.8°C 50.9°F10.5°C 32% 3.2 mph SE5.1 kmh SE 6.0 mph9.7 kmh 30.03 in1016.9 mb 0.00 in0.0 mm 0.00 in0.0 mm 0.00 in0.0 mm
04:15 PM 82.9°F28.3°C 50.1°F10.1°C 32% 4.6 mph N7.4 kmh N 9.2 mph14.8 kmh 30.03 in1016.9 mb 0.00 in0.0 mm 0.00 in0.0 mm 0.00 in0.0 mm
04:20 PM 81.9°F27.7°C 49.2°F9.6°C 32% 5.4 mph N8.7 kmh N 9.2 mph14.8 kmh 30.03 in1016.9 mb 0.00 in0.0 mm 0.00 in0.0 mm 0.00 in0.0 mm
04:25 PM 81.3°F27.4°C 49.5°F9.7°C 33% 4.5 mph NE7.2 kmh NE 7.6 mph12.2 kmh 30.03 in1016.9 mb 0.00 in0.0 mm 0.00 in0.0 mm 0.00 in0.0 mm
04:30 PM 81.1°F27.3°C 49.3°F9.6°C 33% 5.6 mph ENE9.0 kmh ENE 10.7 mph17.2 kmh 30.04 in1017.3 mb 0.00 in0.0 mm 0.00 in0.0 mm 0.00 in0.0 mm
04:35 PM 81.9°F27.7°C 50.0°F10.0°C 33% 6.4 mph E10.3 kmh E 10.7 mph17.2 kmh 30.03 in1016.9 mb 0.00 in0.0 mm 0.00 in0.0 mm 0.00 in0.0 mm
04:40 PM 81.9°F27.7°C 49.2°F9.6°C 32% 4.7 mph ENE7.6 kmh ENE 8.3 mph13.4 kmh 30.04 in1017.3 mb 0.00 in0.0 mm 0.00 in0.0 mm 0.00 in0.0 mm
04:45 PM 80.8°F27.1°C 48.2°F9.0°C 32% 4.7 mph N7.6 kmh N 8.3 mph13.4 kmh 30.03 in1016.9 mb 0.00 in0.0 mm 0.00 in0.0 mm 0.00 in0.0 mm
04:50 PM 80.6°F27.0°C 48.9°F9.4°C 33% 4.8 mph N7.7 kmh N 8.3 mph13.4 kmh 30.04 in1017.3 mb 0.00 in0.0 mm 0.00 in0.0 mm 0.00 in0.0 mm
04:55 PM 80.6°F27.0°C 48.9°F9.4°C 33% 3.6 mph NNW5.8 kmh NNW 8.3 mph13.4 kmh 30.03 in1016.9 mb 0.00 in0.0 mm 0.00 in0.0 mm 0.00 in0.0 mm
05:00 PM 80.8°F27.1°C 49.0°F9.4°C 33% 4.4 mph NE7.1 kmh NE 7.6 mph12.2 kmh 30.03 in1016.9 mb 0.00 in0.0 mm 0.00 in0.0 mm 0.00 in0.0 mm
05:05 PM 80.8°F27.1°C 49.0°F9.4°C 33% 4.6 mph ENE7.4 kmh ENE 7.6 mph12.2 kmh 30.03 in1016.9 mb 0.00 in0.0 mm 0.00 in0.0 mm 0.00 in0.0 mm
05:10 PM 81.5°F27.5°C 49.7°F9.8°C 33% 4.0 mph ENE6.4 kmh ENE 6.0 mph9.7 kmh 30.02 in1016.6 mb 0.00 in0.0 mm 0.00 in0.0 mm 0.00 in0.0 mm
05:15 PM 81.1°F27.3°C 49.3°F9.6°C 33% 5.4 mph E8.7 kmh E 6.9 mph11.1 kmh 30.03 in1016.9 mb 0.00 in0.0 mm 0.00 in0.0 mm 0.00 in0.0 mm
05:20 PM 81.7°F27.6°C 49.8°F9.9°C 33% 5.9 mph ESE9.5 kmh ESE 6.9 mph11.1 kmh 30.02 in1016.6 mb 0.00 in0.0 mm 0.00 in0.0 mm 0.00 in0.0 mm
05:25 PM 81.0°F27.2°C 48.4°F9.1°C 32% 5.1 mph ESE8.2 kmh ESE 6.9 mph11.1 kmh 30.02 in1016.6 mb 0.00 in0.0 mm 0.00 in0.0 mm 0.00 in0.0 mm
05:30 PM 80.1°F26.7°C 48.4°F9.1°C 33% 4.8 mph E7.7 kmh E 7.6 mph12.2 kmh 30.02 in1016.6 mb 0.00 in0.0 mm 0.00 in0.0 mm 0.00 in0.0 mm
05:35 PM 80.1°F26.7°C 48.4°F9.1°C 33% 4.5 mph E7.2 kmh E 7.6 mph12.2 kmh 30.02 in1016.6 mb 0.00 in0.0 mm 0.00 in0.0 mm 0.00 in0.0 mm
05:40 PM 79.9°F26.6°C 49.0°F9.4°C 34% 4.6 mph E7.4 kmh E 8.3 mph13.4 kmh 30.03 in1016.9 mb 0.00 in0.0 mm 0.00 in0.0 mm 0.00 in0.0 mm
05:45 PM 79.3°F26.3°C 48.6°F9.2°C 34% 3.7 mph E6.0 kmh E 8.3 mph13.4 kmh 30.03 in1016.9 mb 0.00 in0.0 mm 0.00 in0.0 mm 0.00 in0.0 mm
05:50 PM 79.3°F26.3°C 48.6°F9.2°C 34% 2.9 mph E4.7 kmh E 5.4 mph8.7 kmh 30.03 in1016.9 mb 0.00 in0.0 mm 0.00 in0.0 mm 0.00 in0.0 mm
05:55 PM 78.6°F25.9°C 47.9°F8.8°C 34% 3.2 mph E5.1 kmh E 5.4 mph8.7 kmh 30.03 in1016.9 mb 0.00 in0.0 mm 0.00 in0.0 mm 0.00 in0.0 mm
06:00 PM 78.1°F25.6°C 48.2°F9.0°C 35% 3.1 mph NE5.0 kmh NE 5.4 mph8.7 kmh 30.03 in1016.9 mb 0.00 in0.0 mm 0.00 in0.0 mm 0.00 in0.0 mm
06:05 PM 77.7°F25.4°C 47.9°F8.8°C 35% 3.7 mph ENE6.0 kmh ENE 6.0 mph9.7 kmh 30.03 in1016.9 mb 0.00 in0.0 mm 0.00 in0.0 mm 0.00 in0.0 mm
06:10 PM 77.4°F25.2°C 48.4°F9.1°C 36% 3.3 mph E5.3 kmh E 6.0 mph9.7 kmh 30.03 in1016.9 mb 0.00 in0.0 mm 0.00 in0.0 mm 0.00 in0.0 mm
06:15 PM 76.8°F24.9°C 47.9°F8.8°C 36% 2.9 mph NE4.7 kmh NE 4.5 mph7.2 kmh 30.04 in1017.3 mb 0.00 in0.0 mm 0.00 in0.0 mm 0.00 in0.0 mm
06:20 PM 76.3°F24.6°C 47.4°F8.6°C 36% 2.5 mph NE4.0 kmh NE 4.5 mph7.2 kmh 30.03 in1016.9 mb 0.00 in0.0 mm 0.00 in0.0 mm 0.00 in0.0 mm
06:25 PM 76.1°F24.5°C 48.0°F8.9°C 37% 2.4 mph NE3.9 kmh NE 3.8 mph6.1 kmh 30.04 in1017.3 mb 0.00 in0.0 mm 0.00 in0.0 mm 0.00 in0.0 mm
06:30 PM 75.9°F24.4°C 47.8°F8.8°C 37% 2.2 mph NW3.5 kmh NW 3.8 mph6.1 kmh 30.04 in1017.3 mb 0.00 in0.0 mm 0.00 in0.0 mm 0.00 in0.0 mm
06:35 PM 75.6°F24.2°C 48.2°F9.0°C 38% 1.7 mph NW2.7 kmh NW 2.2 mph3.5 kmh 30.04 in1017.3 mb 0.00 in0.0 mm 0.00 in0.0 mm 0.00 in0.0 mm
06:40 PM 75.4°F24.1°C 48.0°F8.9°C 38% 1.6 mph NE2.6 kmh NE 2.2 mph3.5 kmh 30.04 in1017.3 mb 0.00 in0.0 mm 0.00 in0.0 mm 0.00 in0.0 mm
06:45 PM 75.2°F24.0°C 48.6°F9.2°C 39% 1.6 mph ESE2.6 kmh ESE 2.2 mph3.5 kmh 30.04 in1017.3 mb 0.00 in0.0 mm 0.00 in0.0 mm 0.00 in0.0 mm
06:50 PM 74.8°F23.8°C 48.3°F9.1°C 39% 0.9 mph E1.4 kmh E 2.2 mph3.5 kmh 30.04 in1017.3 mb 0.00 in0.0 mm 0.00 in0.0 mm 0.00 in0.0 mm
06:55 PM 74.3°F23.5°C 49.1°F9.5°C 41% Calm Calm 0.7 mph1.1 kmh 30.04 in1017.3 mb 0.00 in0.0 mm 0.00 in0.0 mm 0.00 in0.0 mm
07:00 PM 73.8°F23.2°C 49.9°F9.9°C 43% 0.1 mph SW0.2 kmh SW 0.7 mph1.1 kmh 30.04 in1017.3 mb 0.00 in0.0 mm 0.00 in0.0 mm 0.00 in0.0 mm
07:05 PM 73.0°F22.8°C 49.9°F9.9°C 44% 0.1 mph SW0.2 kmh SW 0.7 mph1.1 kmh 30.04 in1017.3 mb 0.00 in0.0 mm 0.00 in0.0 mm 0.00 in0.0 mm
07:10 PM 72.7°F22.6°C 50.1°F10.1°C 45% 0.5 mph S0.8 kmh S 1.6 mph2.6 kmh 30.04 in1017.3 mb 0.00 in0.0 mm 0.00 in0.0 mm 0.00 in0.0 mm
07:15 PM 72.1°F22.3°C 50.2°F10.1°C 46% 1.0 mph S1.6 kmh S 1.6 mph2.6 kmh 30.05 in1017.6 mb 0.00 in0.0 mm 0.00 in0.0 mm 0.00 in0.0 mm
07:20 PM 71.6°F22.0°C 50.3°F10.2°C 47% 1.1 mph S1.8 kmh S 1.6 mph2.6 kmh 30.05 in1017.6 mb 0.00 in0.0 mm 0.00 in0.0 mm 0.00 in0.0 mm
07:25 PM 71.1°F21.7°C 49.8°F9.9°C 47% 1.3 mph S2.1 kmh S 1.6 mph2.6 kmh 30.05 in1017.6 mb 0.00 in0.0 mm 0.00 in0.0 mm 0.00 in0.0 mm
07:30 PM 70.5°F21.4°C 49.3°F9.6°C 47% 1.0 mph S1.6 kmh S 1.6 mph2.6 kmh 30.05 in1017.6 mb 0.00 in0.0 mm 0.00 in0.0 mm 0.00 in0.0 mm
07:35 PM 70.0°F21.1°C 50.0°F10.0°C 49% 0.7 mph SW1.1 kmh SW 1.6 mph2.6 kmh 30.06 in1017.9 mb 0.00 in0.0 mm 0.00 in0.0 mm 0.00 in0.0 mm
07:40 PM 69.6°F20.9°C 49.6°F9.8°C 49% 1.1 mph SW1.8 kmh SW 1.6 mph2.6 kmh 30.06 in1017.9 mb 0.00 in0.0 mm 0.00 in0.0 mm 0.00 in0.0 mm
07:45 PM 69.4°F20.8°C 48.9°F9.4°C 48% 1.0 mph SSW1.6 kmh SSW 1.6 mph2.6 kmh 30.06 in1017.9 mb 0.00 in0.0 mm 0.00 in0.0 mm 0.00 in0.0 mm
07:50 PM 69.3°F20.7°C 49.3°F9.6°C 49% 0.6 mph SSW1.0 kmh SSW 0.7 mph1.1 kmh 30.06 in1017.9 mb 0.00 in0.0 mm 0.00 in0.0 mm 0.00 in0.0 mm
07:55 PM 68.9°F20.5°C 49.0°F9.4°C 49% 0.8 mph S1.3 kmh S 1.6 mph2.6 kmh 30.07 in1018.3 mb 0.00 in0.0 mm 0.00 in0.0 mm 0.00 in0.0 mm
08:00 PM 68.9°F20.5°C 49.5°F9.7°C 50% 1.3 mph S2.1 kmh S 1.6 mph2.6 kmh 30.07 in1018.3 mb 0.00 in0.0 mm 0.00 in0.0 mm 0.00 in0.0 mm
08:05 PM 68.5°F20.3°C 49.2°F9.6°C 50% 1.1 mph S1.8 kmh S 1.6 mph2.6 kmh 30.07 in1018.3 mb 0.00 in0.0 mm 0.00 in0.0 mm 0.00 in0.0 mm
08:10 PM 68.4°F20.2°C 49.0°F9.4°C 50% 0.6 mph S1.0 kmh S 1.6 mph2.6 kmh 30.07 in1018.3 mb 0.00 in0.0 mm 0.00 in0.0 mm 0.00 in0.0 mm
08:15 PM 68.0°F20.0°C 49.2°F9.6°C 51% 0.8 mph S1.3 kmh S 1.6 mph2.6 kmh 30.07 in1018.3 mb 0.00 in0.0 mm 0.00 in0.0 mm 0.00 in0.0 mm
08:20 PM 67.5°F19.7°C 49.2°F9.6°C 52% 1.1 mph S1.8 kmh S 1.6 mph2.6 kmh 30.07 in1018.3 mb 0.00 in0.0 mm 0.00 in0.0 mm 0.00 in0.0 mm
08:25 PM 66.9°F19.4°C 48.7°F9.3°C 52% 0.9 mph S1.4 kmh S 1.6 mph2.6 kmh 30.07 in1018.3 mb 0.00 in0.0 mm 0.00 in0.0 mm 0.00 in0.0 mm
08:30 PM 66.7°F19.3°C 49.1°F9.5°C 53% 0.9 mph S1.4 kmh S 2.2 mph3.5 kmh 30.07 in1018.3 mb 0.00 in0.0 mm 0.00 in0.0 mm 0.00 in0.0 mm
08:35 PM 66.6°F19.2°C 48.9°F9.4°C 53% 1.1 mph S1.8 kmh S 2.2 mph3.5 kmh 30.07 in1018.3 mb 0.00 in0.0 mm 0.00 in0.0 mm 0.00 in0.0 mm
08:40 PM 66.4°F19.1°C 48.2°F9.0°C 52% 0.9 mph S1.4 kmh S 1.6 mph2.6 kmh 30.07 in1018.3 mb 0.00 in0.0 mm 0.00 in0.0 mm 0.00 in0.0 mm
08:45 PM 65.8°F18.8°C 48.3°F9.1°C 53% 1.2 mph S1.9 kmh S 1.6 mph2.6 kmh 30.07 in1018.3 mb 0.00 in0.0 mm 0.00 in0.0 mm 0.00 in0.0 mm
08:50 PM 65.8°F18.8°C 48.3°F9.1°C 53% 1.4 mph S2.3 kmh S 1.6 mph2.6 kmh 30.07 in1018.3 mb 0.00 in0.0 mm 0.00 in0.0 mm 0.00 in0.0 mm
08:55 PM 65.7°F18.7°C 48.1°F8.9°C 53% 0.8 mph SSW1.3 kmh SSW 1.6 mph2.6 kmh 30.06 in1017.9 mb 0.00 in0.0 mm 0.00 in0.0 mm 0.00 in0.0 mm
09:00 PM 65.5°F18.6°C 47.9°F8.8°C 53% 0.3 mph SW0.5 kmh SW 0.7 mph1.1 kmh 30.07 in1018.3 mb 0.00 in0.0 mm 0.00 in0.0 mm 0.00 in0.0 mm
09:05 PM 65.1°F18.4°C 48.1°F8.9°C 54% 0.4 mph SW0.6 kmh SW 0.7 mph1.1 kmh 30.07 in1018.3 mb 0.00 in0.0 mm 0.00 in0.0 mm 0.00 in0.0 mm
09:10 PM 64.9°F18.3°C 48.4°F9.1°C 55% 0.8 mph SSE1.3 kmh SSE 2.2 mph3.5 kmh 30.07 in1018.3 mb 0.00 in0.0 mm 0.00 in0.0 mm 0.00 in0.0 mm
09:15 PM 64.8°F18.2°C 48.2°F9.0°C 55% 2.2 mph SE3.5 kmh SE 5.4 mph8.7 kmh 30.07 in1018.3 mb 0.00 in0.0 mm 0.00 in0.0 mm 0.00 in0.0 mm
09:20 PM 64.6°F18.1°C 47.6°F8.7°C 54% 3.6 mph SE5.8 kmh SE 5.4 mph8.7 kmh 30.07 in1018.3 mb 0.00 in0.0 mm 0.00 in0.0 mm 0.00 in0.0 mm
09:25 PM 64.6°F18.1°C 47.6°F8.7°C 54% 3.7 mph SE6.0 kmh SE 4.5 mph7.2 kmh 30.07 in1018.3 mb 0.00 in0.0 mm 0.00 in0.0 mm 0.00 in0.0 mm
09:30 PM 64.4°F18.0°C 47.4°F8.6°C 54% 3.3 mph SE5.3 kmh SE 3.8 mph6.1 kmh 30.07 in1018.3 mb 0.00 in0.0 mm 0.00 in0.0 mm 0.00 in0.0 mm
09:35 PM 64.4°F18.0°C 47.4°F8.6°C 54% 2.4 mph SSE3.9 kmh SSE 3.1 mph5.0 kmh 30.08 in1018.6 mb 0.00 in0.0 mm 0.00 in0.0 mm 0.00 in0.0 mm
09:40 PM 64.2°F17.9°C 47.2°F8.4°C 54% 2.0 mph SSE3.2 kmh SSE 2.2 mph3.5 kmh 30.07 in1018.3 mb 0.00 in0.0 mm 0.00 in0.0 mm 0.00 in0.0 mm
09:45 PM 64.0°F17.8°C 47.1°F8.4°C 54% 1.9 mph SE3.1 kmh SE 2.2 mph3.5 kmh 30.07 in1018.3 mb 0.00 in0.0 mm 0.00 in0.0 mm 0.00 in0.0 mm
09:50 PM 63.9°F17.7°C 47.4°F8.6°C 55% 1.1 mph SE1.8 kmh SE 2.2 mph3.5 kmh 30.07 in1018.3 mb 0.00 in0.0 mm 0.00 in0.0 mm 0.00 in0.0 mm
09:55 PM 63.7°F17.6°C 47.2°F8.4°C 55% 0.4 mph SE0.6 kmh SE 0.7 mph1.1 kmh 30.07 in1018.3 mb 0.00 in0.0 mm 0.00 in0.0 mm 0.00 in0.0 mm
10:00 PM 63.1°F17.3°C 47.2°F8.4°C 56% 0.8 mph S1.3 kmh S 2.2 mph3.5 kmh 30.07 in1018.3 mb 0.00 in0.0 mm 0.00 in0.0 mm 0.00 in0.0 mm
10:05 PM 63.0°F17.2°C 47.0°F8.3°C 56% 1.1 mph S1.8 kmh S 2.2 mph3.5 kmh 30.07 in1018.3 mb 0.00 in0.0 mm 0.00 in0.0 mm 0.00 in0.0 mm
10:10 PM 62.8°F17.1°C 47.3°F8.5°C 57% 0.8 mph SW1.3 kmh SW 1.6 mph2.6 kmh 30.07 in1018.3 mb 0.00 in0.0 mm 0.00 in0.0 mm 0.00 in0.0 mm
10:15 PM 62.6°F17.0°C 47.2°F8.4°C 57% 0.9 mph SW1.4 kmh SW 2.2 mph3.5 kmh 30.07 in1018.3 mb 0.00 in0.0 mm 0.00 in0.0 mm 0.00 in0.0 mm
10:20 PM 62.4°F16.9°C 47.0°F8.3°C 57% 1.6 mph S2.6 kmh S 2.2 mph3.5 kmh 30.07 in1018.3 mb 0.00 in0.0 mm 0.00 in0.0 mm 0.00 in0.0 mm
10:25 PM 62.2°F16.8°C 46.8°F8.2°C 57% 1.9 mph S3.1 kmh S 2.2 mph3.5 kmh 30.07 in1018.3 mb 0.00 in0.0 mm 0.00 in0.0 mm 0.00 in0.0 mm
10:30 PM 62.2°F16.8°C 46.8°F8.2°C 57% 1.9 mph S3.1 kmh S 2.2 mph3.5 kmh 30.07 in1018.3 mb 0.00 in0.0 mm 0.00 in0.0 mm 0.00 in0.0 mm
10:35 PM 62.1°F16.7°C 46.7°F8.2°C 57% 2.1 mph S3.4 kmh S 2.2 mph3.5 kmh 30.07 in1018.3 mb 0.00 in0.0 mm 0.00 in0.0 mm 0.00 in0.0 mm
10:40 PM 61.9°F16.6°C 47.0°F8.3°C 58% 2.2 mph S3.5 kmh S 2.2 mph3.5 kmh 30.07 in1018.3 mb 0.00 in0.0 mm 0.00 in0.0 mm 0.00 in0.0 mm
10:45 PM 61.7°F16.5°C 46.8°F8.2°C 58% 2.2 mph S3.5 kmh S 2.2 mph3.5 kmh 30.07 in1018.3 mb 0.00 in0.0 mm 0.00 in0.0 mm 0.00 in0.0 mm
10:50 PM 61.5°F16.4°C 47.1°F8.4°C 59% 2.2 mph S3.5 kmh S 2.2 mph3.5 kmh 30.07 in1018.3 mb 0.00 in0.0 mm 0.00 in0.0 mm 0.00 in0.0 mm
10:55 PM 61.2°F16.2°C 46.7°F8.2°C 59% 2.2 mph S3.5 kmh S 2.2 mph3.5 kmh 30.07 in1018.3 mb 0.00 in0.0 mm 0.00 in0.0 mm 0.00 in0.0 mm
11:00 PM 61.0°F16.1°C 47.0°F8.3°C 60% 2.0 mph S3.2 kmh S 2.2 mph3.5 kmh 30.07 in1018.3 mb 0.00 in0.0 mm 0.00 in0.0 mm 0.00 in0.0 mm
11:05 PM 60.8°F16.0°C 46.8°F8.2°C 60% 1.8 mph S2.9 kmh S 2.2 mph3.5 kmh 30.07 in1018.3 mb 0.00 in0.0 mm 0.00 in0.0 mm 0.00 in0.0 mm
11:10 PM 60.6°F15.9°C 46.7°F8.2°C 60% 1.7 mph S2.7 kmh S 2.2 mph3.5 kmh 30.07 in1018.3 mb 0.00 in0.0 mm 0.00 in0.0 mm 0.00 in0.0 mm
11:15 PM 60.4°F15.8°C 46.5°F8.1°C 60% 1.4 mph S2.3 kmh S 1.6 mph2.6 kmh 30.07 in1018.3 mb 0.00 in0.0 mm 0.00 in0.0 mm 0.00 in0.0 mm
11:20 PM 60.3°F15.7°C 46.8°F8.2°C 61% 1.5 mph S2.4 kmh S 2.2 mph3.5 kmh 30.07 in1018.3 mb 0.00 in0.0 mm 0.00 in0.0 mm 0.00 in0.0 mm
11:25 PM 60.1°F15.6°C 46.6°F8.1°C 61% 2.0 mph S3.2 kmh S 3.1 mph5.0 kmh 30.07 in1018.3 mb 0.00 in0.0 mm 0.00 in0.0 mm 0.00 in0.0 mm
11:30 PM 59.7°F15.4°C 46.3°F7.9°C 61% 2.2 mph SSE3.5 kmh SSE 3.1 mph5.0 kmh 30.07 in1018.3 mb 0.00 in0.0 mm 0.00 in0.0 mm 0.00 in0.0 mm
11:35 PM 59.7°F15.4°C 46.3°F7.9°C 61% 1.9 mph SSE3.1 kmh SSE 2.2 mph3.5 kmh 30.07 in1018.3 mb 0.00 in0.0 mm 0.00 in0.0 mm 0.00 in0.0 mm
11:40 PM 59.5°F15.3°C 46.1°F7.8°C 61% 1.5 mph S2.4 kmh S 2.2 mph3.5 kmh 30.06 in1017.9 mb 0.00 in0.0 mm 0.00 in0.0 mm 0.00 in0.0 mm
11:45 PM 59.4°F15.2°C 45.9°F7.7°C 61% 1.4 mph S2.3 kmh S 1.6 mph2.6 kmh 30.07 in1018.3 mb 0.00 in0.0 mm 0.00 in0.0 mm 0.00 in0.0 mm
11:50 PM 59.2°F15.1°C 46.2°F7.9°C 62% 1.6 mph S2.6 kmh S 1.6 mph2.6 kmh 30.07 in1018.3 mb 0.00 in0.0 mm 0.00 in0.0 mm 0.00 in0.0 mm
11:55 PM 59.2°F15.1°C 46.2°F7.9°C 62% 1.7 mph S2.7 kmh S 2.2 mph3.5 kmh 30.06 in1017.9 mb 0.00 in0.0 mm 0.00 in0.0 mm 0.00 in0.0 mm